Koch Ridge, Arkansas
Current Conditions -  °F | °C
As of 6:35 PM on Monday 24 Nov 2014 (Local Time) from KCCA Reporting Station
Clear Clear  
Wind Chill: 39°   Ceiling: Unl
Heat Index: 39°   Visibility: 10mi
Dew Point: 32°   Wind: 0mph
Humidity: 75%   Direction: NA
Pressure: 30"   Gusts: NA
Location:  35.6269°N, 92.5508°W
Report Text: KCCA 250035Z AUTO 00000KT 10SM CLR 04/00 A3000 RMK AO2
Loading
Personal Weather Stations






























Interactive Weather Map New forecast layout! Learn more

10-Day Weather Forecast

Advertisements
Track Severe Weather on mobile